Accueil
METAR-TAF:

METAR-TAF

Aéroports :

Greenwood, Mississippi, États-Unis

latitude: 33-29-33N, longitude: 090-05-01W, altitude: 47 m

Observation

Le bulletin a été fait il y a 1 heure et 59 minutes, à 16:53 UTC
Vent 11 kt de sud/sud-ouest avec des rafales jusqu'à 19 kt
Température 33°C
Humidité 56%
Pression 1016 hPa
Visibilité: 16.1 km
Ciel clair

METAR: KGWO 161653Z AUTO 21011G19KT 10SM CLR 33/23 A2999 RMK AO2 SLP153 T03330228 $

Heure: 13:52 (18:52 UTC)

Prévision

Le bulletin a été fait il y a 1 heure et 30 minutes, à 17:22 UTC
Prévision valable du 16 à 18 UTC au 17 à 18 UTC
Vent 9 kt de ouest/sud-ouest
Visibilité: 10 km
Quelques nuages à une hauteur de 5000 ft

TAF: KGWO 161722Z 1618/1718 24009KT P6SM FEW050

Observations et prévisions météorologiques de plus de 4000 aéroports (messages METAR et TAF).

Les stations disponibles sont représentées par des disques jaunes et rouges sur la carte.

Passer la souris dessus pour voir le nom de la station.

Cliquer dessus pour voir les observations et prévisions météorologiques.

Pour changer de carte: cliquez sur les boutons verts avec une croix noire pour zoomer, sur le bouton vert avec un tiret pour effectuer un zoom arrière, ou sur les flèches vertes pour les cartes adjacentes.


METAR-TAF: